createdAt,value
2022-12-26T00:00:00.717Z,7.95
2022-12-26T00:03:16.557Z,7.97
2022-12-26T00:06:24.667Z,7.99
2022-12-26T00:09:29.595Z,7.96
2022-12-26T00:12:33.440Z,7.92
2022-12-26T00:15:41.034Z,7.94
2022-12-26T00:18:45.208Z,7.95
2022-12-26T00:21:49.437Z,7.95
2022-12-26T00:24:52.180Z,7.94
2022-12-26T00:27:54.839Z,7.92
2022-12-26T00:30:58.223Z,7.93
2022-12-26T00:34:01.076Z,7.89
2022-12-26T00:37:04.375Z,7.86
2022-12-26T00:40:24.485Z,7.77
2022-12-26T00:43:27.382Z,7.72
2022-12-26T00:46:30.243Z,7.65
2022-12-26T00:50:14.308Z,7.56
2022-12-26T00:52:58.970Z,7.46
2022-12-26T00:56:02.360Z,7.37
2022-12-26T00:59:08.178Z,7.31
2022-12-26T01:02:51.043Z,7.29
2022-12-26T01:05:53.872Z,7.24
2022-12-26T01:08:57.306Z,7.16
2022-12-26T01:12:00.545Z,7.11
2022-12-26T01:15:06.324Z,7.08
2022-12-26T01:18:09.732Z,7.05
2022-12-26T01:21:14.804Z,7.01
2022-12-26T01:24:17.659Z,6.91
2022-12-26T01:27:22.408Z,6.86
2022-12-26T01:30:25.572Z,6.78
2022-12-26T01:33:28.414Z,6.73
2022-12-26T01:36:32.286Z,6.67
2022-12-26T01:39:35.347Z,6.61
2022-12-26T01:42:40.364Z,6.61
2022-12-26T01:45:50.263Z,6.57
2022-12-26T01:48:56.190Z,6.54
2022-12-26T01:52:14.266Z,6.47
2022-12-26T01:55:22.537Z,6.43
2022-12-26T01:58:31.926Z,6.36
2022-12-26T02:01:40.271Z,6.28
2022-12-26T02:05:08.264Z,6.21
2022-12-26T02:08:24.138Z,6.13
2022-12-26T02:11:33.376Z,6.10
2022-12-26T02:14:38.005Z,6.01
2022-12-26T02:17:42.833Z,5.93
2022-12-26T02:21:04.275Z,5.94
2022-12-26T02:24:28.331Z,5.91
2022-12-26T02:27:43.001Z,5.87
2022-12-26T02:31:02.001Z,5.83
2022-12-26T02:34:22.684Z,5.73
2022-12-26T02:37:30.811Z,5.67
2022-12-26T02:40:56.517Z,5.62
2022-12-26T02:44:43.407Z,5.61
2022-12-26T02:48:11.240Z,5.56
2022-12-26T02:51:45.927Z,5.53
2022-12-26T02:55:23.085Z,5.49
2022-12-26T02:59:10.136Z,5.43
2022-12-26T03:02:57.663Z,5.34
2022-12-26T03:06:32.328Z,5.29
2022-12-26T03:09:56.202Z,5.28
2022-12-26T03:13:12.403Z,5.22
2022-12-26T03:16:37.107Z,5.12
2022-12-26T03:19:58.237Z,5.01
2022-12-26T03:23:11.711Z,4.89
2022-12-26T03:26:39.682Z,4.78
2022-12-26T03:30:01.651Z,4.77
2022-12-26T03:33:05.117Z,4.77
2022-12-26T03:36:13.279Z,4.80
2022-12-26T03:39:16.033Z,4.75
2022-12-26T03:43:16.711Z,4.70
2022-12-26T03:46:53.617Z,4.68
2022-12-26T03:50:29.933Z,4.69
2022-12-26T03:54:09.969Z,4.70
2022-12-26T03:57:37.725Z,4.74
2022-12-26T04:01:03.976Z,4.71
2022-12-26T04:04:29.245Z,4.71
2022-12-26T04:07:56.510Z,4.65
2022-12-26T04:11:21.731Z,4.65
2022-12-26T04:14:59.722Z,4.63
2022-12-26T04:18:30.167Z,4.63
2022-12-26T04:22:10.617Z,4.59
2022-12-26T04:25:49.679Z,4.56
2022-12-26T04:29:14.813Z,4.53
2022-12-26T04:32:48.484Z,4.50
2022-12-26T04:36:18.414Z,4.53
2022-12-26T04:39:46.137Z,4.47
2022-12-26T04:43:46.841Z,4.45
2022-12-26T04:46:37.993Z,4.42
2022-12-26T04:50:02.047Z,4.39
2022-12-26T04:53:04.921Z,4.40
2022-12-26T04:56:14.805Z,4.35
2022-12-26T04:59:19.245Z,4.29
2022-12-26T05:02:40.244Z,4.23
2022-12-26T05:06:11.082Z,4.18
2022-12-26T05:09:34.680Z,4.12
2022-12-26T05:12:38.252Z,4.06
2022-12-26T05:16:00.444Z,3.99
2022-12-26T05:19:24.943Z,3.94
2022-12-26T05:22:51.945Z,3.88
2022-12-26T05:26:19.071Z,3.83
2022-12-26T05:29:22.177Z,3.78
2022-12-26T05:32:45.137Z,3.71
2022-12-26T05:35:48.498Z,3.73
2022-12-26T05:38:52.224Z,3.64
2022-12-26T05:41:54.995Z,3.61
2022-12-26T05:44:58.330Z,3.56
2022-12-26T05:48:02.219Z,3.56
2022-12-26T05:51:05.938Z,3.57
2022-12-26T05:54:10.190Z,3.58
2022-12-26T05:57:15.423Z,3.60
2022-12-26T06:00:19.584Z,3.65
2022-12-26T06:03:24.220Z,3.68
2022-12-26T06:06:32.614Z,3.70
2022-12-26T06:09:36.017Z,3.68
2022-12-26T06:12:39.193Z,3.69
2022-12-26T06:15:45.301Z,3.68
2022-12-26T06:18:48.987Z,3.72
2022-12-26T06:21:53.840Z,3.65
2022-12-26T06:24:59.095Z,3.65
2022-12-26T06:28:02.561Z,3.64
2022-12-26T06:31:15.214Z,3.60
2022-12-26T06:34:20.796Z,3.49
2022-12-26T06:37:25.131Z,3.44
2022-12-26T06:40:29.163Z,3.36
2022-12-26T06:43:34.331Z,3.27
2022-12-26T06:46:37.911Z,3.24
2022-12-26T06:49:44.112Z,3.18
2022-12-26T06:52:47.449Z,3.27
2022-12-26T06:55:52.012Z,3.36
2022-12-26T06:58:58.606Z,3.44
2022-12-26T07:02:03.429Z,3.57
2022-12-26T07:05:07.905Z,3.57
2022-12-26T07:08:19.387Z,3.67
2022-12-26T07:11:27.640Z,3.79
2022-12-26T07:14:37.795Z,3.89
2022-12-26T07:17:42.773Z,4.23
2022-12-26T07:20:47.292Z,4.46
2022-12-26T07:23:52.092Z,4.68
2022-12-26T07:26:58.790Z,4.83
2022-12-26T07:30:02.721Z,5.01
2022-12-26T07:33:09.131Z,5.10
2022-12-26T07:36:15.132Z,5.24
2022-12-26T07:39:38.060Z,5.28
2022-12-26T07:42:44.319Z,5.32
2022-12-26T07:45:50.445Z,5.03
2022-12-26T07:48:56.363Z,4.94
2022-12-26T07:52:03.128Z,4.86
2022-12-26T07:55:08.143Z,5.10
2022-12-26T07:58:13.149Z,5.20
2022-12-26T08:01:19.343Z,5.15
2022-12-26T08:04:31.130Z,5.06
2022-12-26T08:07:43.360Z,5.19
2022-12-26T08:10:50.154Z,5.25
2022-12-26T08:13:53.385Z,5.02
2022-12-26T08:16:59.159Z,4.95
2022-12-26T08:20:02.070Z,5.21
2022-12-26T08:23:12.382Z,5.20
2022-12-26T08:26:22.988Z,5.30
2022-12-26T08:29:31.129Z,5.43
2022-12-26T08:32:37.262Z,5.44
2022-12-26T08:35:46.132Z,5.44
2022-12-26T08:39:00.278Z,5.33
2022-12-26T08:42:06.132Z,5.30
2022-12-26T08:45:13.154Z,5.33
2022-12-26T08:48:18.337Z,5.36
2022-12-26T08:51:24.445Z,5.73
2022-12-26T08:54:28.891Z,5.80
2022-12-26T08:57:36.084Z,5.90
2022-12-26T09:00:50.437Z,5.92
2022-12-26T09:04:15.064Z,6.13
2022-12-26T09:07:24.984Z,6.29
2022-12-26T09:10:31.433Z,6.50
2022-12-26T09:13:37.031Z,6.66
2022-12-26T09:16:50.982Z,6.62
2022-12-26T09:20:03.020Z,6.63
2022-12-26T09:23:17.056Z,6.45
2022-12-26T09:26:22.132Z,6.55
2022-12-26T09:29:29.124Z,6.66
2022-12-26T09:32:43.128Z,6.72
2022-12-26T09:35:53.839Z,6.72
2022-12-26T09:39:03.173Z,6.66
2022-12-26T09:42:18.299Z,6.94
2022-12-26T09:45:46.339Z,7.39
2022-12-26T09:49:00.331Z,7.46
2022-12-26T09:52:24.291Z,7.13
2022-12-26T09:55:46.772Z,7.20
2022-12-26T09:59:02.269Z,7.47
2022-12-26T10:02:20.464Z,7.43
2022-12-26T10:05:30.239Z,7.55
2022-12-26T10:08:47.146Z,7.67
2022-12-26T10:12:24.115Z,7.92
2022-12-26T10:15:51.187Z,8.04
2022-12-26T10:19:34.335Z,7.98
2022-12-26T10:22:55.919Z,8.18
2022-12-26T10:26:22.076Z,8.28
2022-12-26T10:29:39.292Z,8.34
2022-12-26T10:32:49.844Z,8.27
2022-12-26T10:35:59.080Z,8.27
2022-12-26T10:39:53.279Z,8.24
2022-12-26T10:43:05.558Z,8.22
2022-12-26T10:46:28.062Z,8.11
2022-12-26T10:49:31.253Z,8.14
2022-12-26T10:52:42.685Z,8.18
2022-12-26T10:55:46.736Z,8.14
2022-12-26T10:59:03.752Z,8.20
2022-12-26T11:02:29.252Z,8.27
2022-12-26T11:06:06.582Z,8.41
2022-12-26T11:09:06.858Z,8.59
2022-12-26T11:12:22.771Z,8.68
2022-12-26T11:15:48.679Z,8.71
2022-12-26T11:18:53.774Z,8.74
2022-12-26T11:22:23.405Z,8.84
2022-12-26T11:25:39.006Z,8.87
2022-12-26T11:28:43.758Z,8.84
2022-12-26T11:32:02.352Z,8.80
2022-12-26T11:35:35.157Z,8.86
2022-12-26T11:39:01.132Z,8.97
2022-12-26T11:42:19.420Z,9.06
2022-12-26T11:45:27.149Z,9.14
2022-12-26T11:48:32.370Z,9.17
2022-12-26T11:51:42.990Z,9.17
2022-12-26T11:54:53.552Z,9.14
2022-12-26T11:58:15.777Z,9.20
2022-12-26T12:01:27.049Z,9.10
2022-12-26T12:04:36.511Z,9.15
2022-12-26T12:08:02.300Z,9.21
2022-12-26T12:11:24.105Z,9.26
2022-12-26T12:14:55.102Z,9.24
2022-12-26T12:18:18.052Z,9.21
2022-12-26T12:21:29.707Z,9.21
2022-12-26T12:24:50.394Z,9.20
2022-12-26T12:28:05.395Z,9.21
2022-12-26T12:31:39.190Z,9.25
2022-12-26T12:35:08.475Z,9.30
2022-12-26T12:38:34.148Z,9.33
2022-12-26T12:42:08.122Z,9.36
2022-12-26T12:45:33.163Z,9.38
2022-12-26T12:49:02.382Z,9.40
2022-12-26T12:52:38.545Z,9.40
2022-12-26T12:56:16.296Z,9.44
2022-12-26T12:59:32.116Z,9.46
2022-12-26T13:02:45.283Z,9.49
2022-12-26T13:06:15.091Z,9.50
2022-12-26T13:09:25.288Z,9.53
2022-12-26T13:12:36.123Z,9.56
2022-12-26T13:15:45.809Z,9.63
2022-12-26T13:18:59.128Z,9.69
2022-12-26T13:22:07.158Z,9.68
2022-12-26T13:25:13.354Z,9.70
2022-12-26T13:28:29.109Z,9.74
2022-12-26T13:31:37.787Z,9.73
2022-12-26T13:34:44.398Z,9.75
2022-12-26T13:38:00.094Z,9.71
2022-12-26T13:41:24.088Z,9.71
2022-12-26T13:44:28.527Z,9.64
2022-12-26T13:47:40.032Z,9.53
2022-12-26T13:50:56.428Z,9.47
2022-12-26T13:54:12.186Z,9.46
2022-12-26T13:57:35.153Z,9.36
2022-12-26T14:00:46.211Z,9.24
2022-12-26T14:04:28.371Z,9.18
2022-12-26T14:07:48.163Z,9.09
2022-12-26T14:11:24.289Z,8.99
2022-12-26T14:14:39.046Z,8.89
2022-12-26T14:17:49.283Z,8.80
2022-12-26T14:21:54.263Z,8.73
2022-12-26T14:25:24.283Z,8.66
2022-12-26T14:29:24.327Z,8.57
2022-12-26T14:33:09.046Z,8.45
2022-12-26T14:36:26.028Z,8.33
2022-12-26T14:40:06.374Z,8.23
2022-12-26T14:43:24.124Z,8.13
2022-12-26T14:46:38.658Z,8.06
2022-12-26T14:49:49.062Z,7.96
2022-12-26T14:52:53.761Z,7.86
2022-12-26T14:56:15.880Z,7.77
2022-12-26T14:59:32.230Z,7.71
2022-12-26T15:02:45.212Z,7.67
2022-12-26T15:06:16.169Z,7.58
2022-12-26T15:09:25.210Z,7.51
2022-12-26T15:12:59.095Z,7.44
2022-12-26T15:16:30.576Z,7.41
2022-12-26T15:19:52.352Z,7.32
2022-12-26T15:23:28.604Z,7.23
2022-12-26T15:26:53.314Z,7.16
2022-12-26T15:30:19.089Z,7.10
2022-12-26T15:33:30.312Z,7.05
2022-12-26T15:37:18.078Z,7.04
2022-12-26T15:40:30.342Z,6.98
2022-12-26T15:43:55.336Z,6.92
2022-12-26T15:47:19.590Z,6.86
2022-12-26T15:51:00.118Z,6.84
2022-12-26T15:54:27.070Z,6.80
2022-12-26T15:58:00.168Z,6.76
2022-12-26T16:01:10.897Z,6.66
2022-12-26T16:04:34.898Z,6.59
2022-12-26T16:07:52.312Z,6.50
2022-12-26T16:11:42.659Z,6.43
2022-12-26T16:14:56.029Z,6.36
2022-12-26T16:18:16.285Z,6.34
2022-12-26T16:21:39.239Z,6.27
2022-12-26T16:24:46.026Z,6.21
2022-12-26T16:27:53.677Z,6.14
2022-12-26T16:31:05.165Z,6.09
2022-12-26T16:34:19.233Z,6.04
2022-12-26T16:37:25.323Z,6.02
2022-12-26T16:40:48.036Z,6.01
2022-12-26T16:43:55.070Z,6.00
2022-12-26T16:47:06.437Z,5.95
2022-12-26T16:50:35.319Z,5.90
2022-12-26T16:53:53.003Z,5.91
2022-12-26T16:57:10.027Z,5.91
2022-12-26T17:00:22.109Z,5.90
2022-12-26T17:03:39.196Z,5.90
2022-12-26T17:07:16.029Z,5.86
2022-12-26T17:10:28.561Z,5.85
2022-12-26T17:13:36.096Z,5.77
2022-12-26T17:16:39.864Z,5.68
2022-12-26T17:19:44.605Z,5.66
2022-12-26T17:22:57.085Z,5.66
2022-12-26T17:26:22.314Z,5.62
2022-12-26T17:29:52.665Z,5.56
2022-12-26T17:33:17.991Z,5.52
2022-12-26T17:40:34.838Z,5.40
2022-12-26T17:43:48.037Z,5.34
2022-12-26T17:46:55.134Z,5.33
2022-12-26T17:50:00.205Z,5.29
2022-12-26T17:53:29.671Z,5.27
2022-12-26T17:56:40.087Z,5.25
2022-12-26T17:59:47.076Z,5.23
2022-12-26T18:02:52.052Z,5.17
2022-12-26T18:06:05.597Z,5.12
2022-12-26T18:09:29.354Z,5.11
2022-12-26T18:12:35.159Z,5.04
2022-12-26T18:15:39.141Z,5.06
2022-12-26T18:18:54.027Z,5.03
2022-12-26T18:22:05.036Z,4.97
2022-12-26T18:25:21.360Z,4.95
2022-12-26T18:28:29.385Z,4.91
2022-12-26T18:31:42.110Z,4.90
2022-12-26T18:34:55.466Z,4.88
2022-12-26T18:38:13.971Z,4.89
2022-12-26T18:41:26.070Z,4.82
2022-12-26T18:44:35.987Z,4.83
2022-12-26T18:47:40.692Z,4.78
2022-12-26T18:50:47.111Z,4.72
2022-12-26T18:53:57.175Z,4.70
2022-12-26T18:57:21.262Z,4.70
2022-12-26T19:00:34.022Z,4.65
2022-12-26T19:03:40.133Z,4.62
2022-12-26T19:06:45.181Z,4.61
2022-12-26T19:10:00.108Z,4.55
2022-12-26T19:13:11.688Z,4.49
2022-12-26T19:16:27.152Z,4.46
2022-12-26T19:19:31.808Z,4.44
2022-12-26T19:22:40.083Z,4.40
2022-12-26T19:26:01.205Z,4.42
2022-12-26T19:29:10.434Z,4.38
2022-12-26T19:32:18.050Z,4.24
2022-12-26T19:35:32.506Z,4.18
2022-12-26T19:38:38.061Z,4.20
2022-12-26T19:41:43.180Z,4.12
2022-12-26T19:45:00.149Z,4.02
2022-12-26T19:48:12.227Z,3.95
2022-12-26T19:51:19.617Z,3.95
2022-12-26T19:54:24.136Z,3.83
2022-12-26T19:57:34.085Z,3.88
2022-12-26T20:00:39.247Z,3.72
2022-12-26T20:03:50.987Z,3.68
2022-12-26T20:07:04.070Z,3.62
2022-12-26T20:10:16.243Z,3.67
2022-12-26T20:13:20.037Z,3.64
2022-12-26T20:19:54.786Z,3.56
2022-12-26T20:22:59.791Z,3.60
2022-12-26T20:26:19.419Z,3.69
2022-12-26T20:29:24.288Z,3.85
2022-12-26T20:32:29.650Z,3.93
2022-12-26T20:35:39.973Z,3.97
2022-12-26T20:38:53.487Z,3.91
2022-12-26T20:42:04.623Z,3.82
2022-12-26T20:45:16.039Z,3.86
2022-12-26T20:48:25.990Z,3.87
2022-12-26T20:51:38.460Z,4.00
2022-12-26T20:54:46.991Z,4.02
2022-12-26T20:57:49.718Z,4.04
2022-12-26T21:01:00.197Z,4.05
2022-12-26T21:04:14.367Z,4.07
2022-12-26T21:07:20.233Z,4.13
2022-12-26T21:10:27.246Z,4.18
2022-12-26T21:13:31.201Z,4.22
2022-12-26T21:17:06.079Z,4.22
2022-12-26T21:20:15.146Z,4.24
2022-12-26T21:23:18.572Z,4.28
2022-12-26T21:26:23.080Z,4.30
2022-12-26T21:29:31.957Z,4.30
2022-12-26T21:32:40.013Z,4.37
2022-12-26T21:35:50.975Z,4.46
2022-12-26T21:39:03.989Z,4.51
2022-12-26T21:42:09.369Z,4.55
2022-12-26T21:45:14.787Z,4.54
2022-12-26T21:48:20.145Z,4.58
2022-12-26T21:51:31.943Z,4.59
2022-12-26T21:54:56.013Z,4.56
2022-12-26T21:58:08.069Z,4.55
2022-12-26T22:01:22.576Z,4.54
2022-12-26T22:04:27.016Z,4.56
2022-12-26T22:07:34.056Z,4.58
2022-12-26T22:10:58.271Z,4.63
2022-12-26T22:14:05.168Z,4.65
2022-12-26T22:17:09.232Z,4.68
2022-12-26T22:20:13.522Z,4.68
2022-12-26T22:23:17.229Z,4.72
2022-12-26T22:26:24.314Z,4.68
2022-12-26T22:29:27.569Z,4.70
2022-12-26T22:32:33.059Z,4.72
2022-12-26T22:35:36.506Z,4.68
2022-12-26T22:38:41.164Z,4.68
2022-12-26T22:41:45.976Z,4.67
2022-12-26T22:44:51.128Z,4.67
2022-12-26T22:47:56.035Z,4.67
2022-12-26T22:51:00.001Z,4.72
2022-12-26T22:54:03.799Z,4.73
2022-12-26T22:57:06.802Z,4.71
2022-12-26T23:00:17.087Z,4.71
2022-12-26T23:03:22.293Z,4.76
2022-12-26T23:06:32.185Z,4.78
2022-12-26T23:09:36.489Z,4.75
2022-12-26T23:12:45.075Z,4.78
2022-12-26T23:16:14.812Z,4.81
2022-12-26T23:19:55.696Z,4.87
2022-12-26T23:23:00.001Z,4.89
2022-12-26T23:26:03.453Z,4.95
2022-12-26T23:29:26.935Z,4.97
2022-12-26T23:32:32.985Z,4.99
2022-12-26T23:35:36.362Z,4.98
2022-12-26T23:38:40.449Z,4.97
2022-12-26T23:41:43.831Z,4.97
2022-12-26T23:44:47.023Z,4.97
2022-12-26T23:47:52.973Z,4.97
2022-12-26T23:51:07.741Z,4.91
2022-12-26T23:54:12.399Z,4.92
2022-12-26T23:57:15.314Z,4.94
